Time;durP1;ratioP1;P1;durP2;ratioP2;P2;SDS_P1;SDS_P2;PMS_P1;PMS_P2;Temp;Humidity;BMP_temperature;BMP_pressure;BME280_temperature;BME280_humidity;BME280_pressure;Samples;Min_cycle;Max_cycle;Signal;HPM_P1;HPM_P2
2023/07/19 00:03:41;;;;;;;6.50;3.33;;;;;;;;;;10560509;28;20040;-75
2023/07/19 00:08:43;;;;;;;;;;;;;;;;;;10561202;28;20112;-75
2023/07/19 00:13:47;;;;;;;8.60;3.22;;;;;;;;;;10565709;27;20112;-75
2023/07/19 00:18:50;;;;;;;6.35;3.08;;;;;;;;;;10558779;28;20043;-76
2023/07/19 00:23:54;;;;;;;7.93;3.08;;;;;;;;;;10560737;28;20047;-76
2023/07/19 00:28:58;;;;;;;9.10;3.45;;;;;;;;;;10550422;28;20044;-76
2023/07/19 00:34:01;;;;;;;6.75;3.47;;;;;;;;;;10552773;28;20038;-75
2023/07/19 00:39:04;;;;;;;12.70;3.88;;;;;;;;;;10562448;28;20116;-75
2023/07/19 00:44:08;;;;;;;7.13;3.35;;;;;;;;;;10565477;28;20549;-75
2023/07/19 00:49:11;;;;;;;7.65;3.50;;;;;;;;;;10557211;28;20058;-75
2023/07/19 00:54:14;;;;;;;8.07;3.90;;;;;;;;;;10560116;28;20835;-75
2023/07/19 00:59:20;;;;;;;9.02;4.07;;;;;;;;;;10567037;28;20042;-75
2023/07/19 01:04:24;;;;;;;8.15;3.35;;;;;;;;;;10557746;28;20071;-76
2023/07/19 01:09:27;;;;;;;9.88;4.13;;;;;;;;;;10562818;28;20047;-75
2023/07/19 01:14:30;;;;;;;;;;;;;;;;;;10566882;28;20191;-75
2023/07/19 01:19:34;;;;;;;7.05;3.13;;;;;;;;;;10560502;28;19924;-74
2023/07/19 01:24:39;;;;;;;4.20;2.38;;;;;;;;;;10558442;28;20034;-74
2023/07/19 01:29:42;;;;;;;10.68;2.60;;;;;;;;;;10562819;28;20047;-75
2023/07/19 01:34:45;;;;;;;5.03;2.00;;;;;;;;;;10562985;28;20036;-74
2023/07/19 01:39:49;;;;;;;5.80;2.03;;;;;;;;;;10563940;27;20072;-75
2023/07/19 01:44:52;;;;;;;8.20;2.92;;;;;;;;;;10565914;27;20394;-75
2023/07/19 01:49:54;;;;;;;6.65;2.45;;;;;;;;;;10565710;27;20101;-75
2023/07/19 01:54:58;;;;;;;5.82;2.38;;;;;;;;;;10562787;27;20032;-75
2023/07/19 02:00:01;;;;;;;10.45;3.17;;;;;;;;;;10562529;27;20050;-76
2023/07/19 02:05:04;;;;;;;11.57;2.80;;;;;;;;;;10563155;27;20058;-75
2023/07/19 02:10:09;;;;;;;5.47;2.20;;;;;;;;;;10558655;28;20584;-74
2023/07/19 02:15:12;;;;;;;11.73;3.10;;;;;;;;;;10568137;27;20036;-74
2023/07/19 02:20:19;;;;;;;8.20;2.95;;;;;;;;;;10561041;27;20051;-75
2023/07/19 02:25:23;;;;;;;5.15;2.58;;;;;;;;;;10563852;28;20100;-75
2023/07/19 02:30:26;;;;;;;6.07;1.67;;;;;;;;;;10557755;27;20376;-76
2023/07/19 02:35:31;;;;;;;7.00;2.90;;;;;;;;;;10565025;28;20123;-75
2023/07/19 02:40:36;;;;;;;7.10;3.28;;;;;;;;;;10565500;27;20182;-75
2023/07/19 02:45:39;;;;;;;8.93;2.83;;;;;;;;;;10571357;27;20134;-75
2023/07/19 02:50:44;;;;;;;7.55;2.35;;;;;;;;;;10570475;27;20051;-75
2023/07/19 02:55:48;;;;;;;9.05;3.28;;;;;;;;;;10564251;27;20125;-76
2023/07/19 03:00:53;;;;;;;10.93;3.35;;;;;;;;;;10563249;27;20052;-76
2023/07/19 03:05:56;;;;;;;5.40;2.25;;;;;;;;;;10552498;28;20126;-76
2023/07/19 03:11:00;;;;;;;5.60;1.98;;;;;;;;;;10554829;28;20043;-76
2023/07/19 03:16:02;;;;;;;8.60;2.97;;;;;;;;;;10556876;27;20039;-75
2023/07/19 03:21:06;;;;;;;9.30;2.85;;;;;;;;;;10543801;28;20054;-74
2023/07/19 03:26:10;;;;;;;8.20;2.38;;;;;;;;;;10562546;28;20046;-74
2023/07/19 03:31:13;;;;;;;11.20;2.97;;;;;;;;;;10558455;27;20044;-74
2023/07/19 03:36:15;;;;;;;10.75;3.75;;;;;;;;;;10563623;28;20035;-75
2023/07/19 03:41:20;;;;;;;9.52;3.17;;;;;;;;;;10561681;27;20504;-74
2023/07/19 03:46:23;;;;;;;10.70;3.75;;;;;;;;;;10549206;28;20389;-74
2023/07/19 03:51:26;;;;;;;3.05;1.73;;;;;;;;;;10562562;28;20048;-75
2023/07/19 03:56:30;;;;;;;13.40;3.50;;;;;;;;;;10565438;27;20568;-75
2023/07/19 04:01:33;;;;;;;11.02;3.40;;;;;;;;;;10556729;27;20083;-74
2023/07/19 04:06:36;;;;;;;7.07;3.35;;;;;;;;;;10561688;27;20035;-74
2023/07/19 04:11:40;;;;;;;13.13;3.53;;;;;;;;;;10565541;28;20051;-74
2023/07/19 04:16:43;;;;;;;5.60;2.10;;;;;;;;;;10556568;27;20305;-75
2023/07/19 04:21:46;;;;;;;9.25;3.63;;;;;;;;;;10561514;28;20050;-74
2023/07/19 04:26:50;;;;;;;9.90;3.60;;;;;;;;;;10552967;28;20032;-75
2023/07/19 04:31:53;;;;;;;9.85;3.35;;;;;;;;;;10556911;28;20309;-75
2023/07/19 04:36:56;;;;;;;10.60;3.70;;;;;;;;;;10558016;28;20032;-75
2023/07/19 04:42:00;;;;;;;10.00;3.70;;;;;;;;;;10557929;28;20207;-74
2023/07/19 04:47:03;;;;;;;13.95;3.63;;;;;;;;;;10558358;28;20027;-74
2023/07/19 04:52:06;;;;;;;10.70;3.97;;;;;;;;;;10551947;27;20043;-75
2023/07/19 04:57:10;;;;;;;11.57;3.78;;;;;;;;;;10562772;28;20038;-75
2023/07/19 05:02:13;;;;;;;12.27;4.20;;;;;;;;;;10567774;28;20039;-75
2023/07/19 05:07:16;;;;;;;7.82;4.40;;;;;;;;;;10564144;28;20547;-76
2023/07/19 05:12:20;;;;;;;8.30;2.83;;;;;;;;;;10553257;27;20510;-75
2023/07/19 05:17:22;;;;;;;10.73;3.88;;;;;;;;;;10562811;27;20035;-75
2023/07/19 05:22:26;;;;;;;6.38;3.30;;;;;;;;;;10564591;27;20063;-75
2023/07/19 05:27:29;;;;;;;14.02;4.25;;;;;;;;;;10551585;28;20042;-76
2023/07/19 05:32:32;;;;;;;9.95;4.20;;;;;;;;;;10559032;27;20062;-76
2023/07/19 05:37:35;;;;;;;10.30;4.25;;;;;;;;;;10559082;28;20036;-75
2023/07/19 05:42:39;;;;;;;5.25;2.78;;;;;;;;;;10574603;27;20127;-75
2023/07/19 05:47:42;;;;;;;10.80;3.45;;;;;;;;;;10547873;27;20039;-75
2023/07/19 05:52:45;;;;;;;10.57;3.88;;;;;;;;;;10565380;27;20532;-75
2023/07/19 05:57:49;;;;;;;10.30;4.15;;;;;;;;;;10567643;27;20039;-75
2023/07/19 06:02:56;;;;;;;11.25;3.80;;;;;;;;;;10567699;27;20071;-75
2023/07/19 06:08:00;;;;;;;10.65;4.40;;;;;;;;;;10568611;27;20039;-76
2023/07/19 06:13:13;;;;;;;11.38;4.50;;;;;;;;;;10566390;28;20119;-75
2023/07/19 06:18:16;;;;;;;10.25;4.80;;;;;;;;;;10562241;28;20027;-75
2023/07/19 06:23:19;;;;;;;9.13;4.65;;;;;;;;;;10567632;28;20044;-75
2023/07/19 06:28:22;;;;;;;;;;;;;;;;;;10562265;28;20046;-75
2023/07/19 06:33:26;;;;;;;11.03;3.97;;;;;;;;;;10560446;28;19924;-75
2023/07/19 06:38:29;;;;;;;6.38;2.88;;;;;;;;;;10557621;27;20035;-75
2023/07/19 06:43:32;;;;;;;12.93;4.20;;;;;;;;;;10565516;27;20092;-75
2023/07/19 06:48:37;;;;;;;11.82;4.65;;;;;;;;;;10560343;28;20040;-75
2023/07/19 06:53:39;;;;;;;10.65;4.00;;;;;;;;;;10563143;27;20044;-75
2023/07/19 06:58:43;;;;;;;11.02;4.50;;;;;;;;;;10559246;27;20035;-75
2023/07/19 07:03:47;;;;;;;12.68;4.97;;;;;;;;;;10560226;28;20044;-75
2023/07/19 07:08:50;;;;;;;11.02;3.97;;;;;;;;;;10563535;28;20118;-73
2023/07/19 07:13:53;;;;;;;7.72;3.70;;;;;;;;;;10556517;28;20513;-75
2023/07/19 07:18:57;;;;;;;11.88;3.90;;;;;;;;;;10560644;28;20039;-75
2023/07/19 07:24:00;;;;;;;12.07;4.47;;;;;;;;;;10556274;28;20044;-76
2023/07/19 07:29:03;;;;;;;6.38;3.03;;;;;;;;;;10555105;28;20035;-76
2023/07/19 07:34:08;;;;;;;8.35;3.95;;;;;;;;;;10558889;28;20126;-75
2023/07/19 07:39:11;;;;;;;8.65;5.05;;;;;;;;;;10556404;27;20031;-75
2023/07/19 07:44:15;;;;;;;12.45;4.30;;;;;;;;;;10551271;27;20113;-75
2023/07/19 07:49:19;;;;;;;11.10;4.30;;;;;;;;;;10545880;28;20124;-75
2023/07/19 07:54:21;;;;;;;10.95;4.07;;;;;;;;;;10560280;28;20040;-75
2023/07/19 07:59:24;;;;;;;9.77;4.25;;;;;;;;;;10556390;27;20115;-75
2023/07/19 08:04:28;;;;;;;7.75;4.13;;;;;;;;;;10562474;27;20097;-75
2023/07/19 08:09:33;;;;;;;10.38;4.60;;;;;;;;;;10554004;28;20043;-75
2023/07/19 08:14:36;;;;;;;8.00;4.20;;;;;;;;;;10554337;27;20524;-76
2023/07/19 08:19:41;;;;;;;7.93;4.38;;;;;;;;;;10557383;28;20135;-76
2023/07/19 08:24:44;;;;;;;10.73;4.47;;;;;;;;;;10538573;28;20085;-76
2023/07/19 08:29:46;;;;;;;8.85;4.03;;;;;;;;;;10559937;28;20411;-76
2023/07/19 08:34:50;;;;;;;9.68;3.75;;;;;;;;;;10561820;28;20044;-76
2023/07/19 08:39:53;;;;;;;7.68;4.57;;;;;;;;;;10557591;28;20039;-76
2023/07/19 08:44:56;;;;;;;7.97;4.50;;;;;;;;;;10558356;28;20151;-76
2023/07/19 08:50:00;;;;;;;5.45;3.92;;;;;;;;;;10554524;28;20499;-76
2023/07/19 08:55:03;;;;;;;7.20;4.32;;;;;;;;;;10552931;28;20677;-76
2023/07/19 09:00:07;;;;;;;7.88;4.18;;;;;;;;;;10536534;28;20067;-74
2023/07/19 09:05:13;;;;;;;8.50;4.38;;;;;;;;;;10540369;28;20104;-74
2023/07/19 09:10:17;;;;;;;6.65;4.38;;;;;;;;;;10553835;28;20505;-74
2023/07/19 09:15:20;;;;;;;5.55;4.40;;;;;;;;;;10558193;28;20472;-74
2023/07/19 09:20:27;;;;;;;5.70;4.50;;;;;;;;;;10557308;28;20031;-74
2023/07/19 09:25:30;;;;;;;8.50;4.65;;;;;;;;;;10549706;28;20043;-75
2023/07/19 09:30:32;;;;;;;6.55;4.30;;;;;;;;;;10558616;28;20043;-76
2023/07/19 09:35:38;;;;;;;7.35;4.63;;;;;;;;;;10562552;28;20545;-76
2023/07/19 09:40:41;;;;;;;6.32;4.32;;;;;;;;;;10566099;28;20039;-75
2023/07/19 09:45:44;;;;;;;7.10;3.95;;;;;;;;;;10560489;28;20039;-75
2023/07/19 09:50:50;;;;;;;7.18;4.72;;;;;;;;;;10547237;28;20043;-76
2023/07/19 09:55:53;;;;;;;6.82;3.78;;;;;;;;;;10562934;27;20043;-76
2023/07/19 10:00:57;;;;;;;6.78;4.10;;;;;;;;;;10562572;28;20047;-76
2023/07/19 10:06:02;;;;;;;8.95;4.18;;;;;;;;;;10565242;27;20039;-76
2023/07/19 10:11:04;;;;;;;6.68;4.35;;;;;;;;;;10568344;28;20298;-75
2023/07/19 10:16:07;;;;;;;7.05;3.97;;;;;;;;;;10560938;28;20042;-75
2023/07/19 10:21:11;;;;;;;6.82;4.32;;;;;;;;;;10567132;28;20130;-75
2023/07/19 10:26:14;;;;;;;6.97;3.80;;;;;;;;;;10566598;27;20050;-76
2023/07/19 10:31:17;;;;;;;6.32;4.43;;;;;;;;;;10569776;28;20073;-75
2023/07/19 10:36:32;;;;;;;7.90;4.50;;;;;;;;;;10563216;27;20503;-74
2023/07/19 10:41:35;;;;;;;7.38;4.18;;;;;;;;;;10563361;28;20039;-74
2023/07/19 10:46:39;;;;;;;6.75;4.10;;;;;;;;;;10564441;28;20122;-73
2023/07/19 10:51:53;;;;;;;11.40;4.20;;;;;;;;;;10559382;27;20149;-74
2023/07/19 10:56:57;;;;;;;7.07;3.95;;;;;;;;;;10554324;28;20097;-74
2023/07/19 11:02:00;;;;;;;8.05;4.43;;;;;;;;;;10545804;28;20511;-75
2023/07/19 11:07:05;;;;;;;7.75;3.83;;;;;;;;;;10562492;27;20461;-75
2023/07/19 11:12:09;;;;;;;5.43;4.05;;;;;;;;;;10560523;28;20050;-74
2023/07/19 11:17:24;;;;;;;6.93;3.63;;;;;;;;;;10555098;27;20071;-75
2023/07/19 11:22:28;;;;;;;6.10;3.65;;;;;;;;;;10557981;28;20151;-74
2023/07/19 11:27:35;;;;;;;8.20;3.88;;;;;;;;;;10558516;28;20042;-75
2023/07/19 11:32:40;;;;;;;9.70;4.30;;;;;;;;;;10563002;28;20465;-76
2023/07/19 11:37:44;;;;;;;6.10;4.13;;;;;;;;;;10560996;27;20065;-75
2023/07/19 11:42:48;;;;;;;6.60;3.70;;;;;;;;;;10559808;28;20116;-76
2023/07/19 11:47:51;;;;;;;7.05;4.45;;;;;;;;;;10560706;28;20118;-75
2023/07/19 11:52:56;;;;;;;6.22;3.78;;;;;;;;;;10562531;27;20035;-75
2023/07/19 11:58:02;;;;;;;3.88;3.15;;;;;;;;;;10555114;28;20047;-76
2023/07/19 12:03:05;;;;;;;5.70;3.58;;;;;;;;;;10560006;28;20370;-77
2023/07/19 12:08:09;;;;;;;4.50;3.22;;;;;;;;;;10554909;28;20051;-75
2023/07/19 12:13:12;;;;;;;6.28;3.88;;;;;;;;;;10560976;28;20039;-75
2023/07/19 12:18:14;;;;;;;6.65;3.58;;;;;;;;;;10562928;28;20569;-76
2023/07/19 12:23:19;;;;;;;7.18;3.80;;;;;;;;;;10560029;28;20418;-76
2023/07/19 12:28:34;;;;;;;8.88;3.72;;;;;;;;;;10559779;28;20172;-75
2023/07/19 12:33:37;;;;;;;5.55;3.72;;;;;;;;;;10551747;28;20051;-76
2023/07/19 12:38:42;;;;;;;7.13;3.60;;;;;;;;;;10553873;28;20024;-75
2023/07/19 12:43:44;;;;;;;5.75;3.63;;;;;;;;;;10558513;28;20396;-76
2023/07/19 12:48:48;;;;;;;6.78;3.58;;;;;;;;;;10551085;28;20031;-76
2023/07/19 12:53:52;;;;;;;5.82;3.55;;;;;;;;;;10555763;28;20682;-75
2023/07/19 12:58:56;;;;;;;6.68;3.30;;;;;;;;;;10557056;28;20396;-76
2023/07/19 13:03:58;;;;;;;7.07;3.13;;;;;;;;;;10557548;28;20422;-76
2023/07/19 13:09:03;;;;;;;4.88;3.30;;;;;;;;;;10559702;28;20122;-76
2023/07/19 13:14:07;;;;;;;4.55;3.50;;;;;;;;;;10559445;28;20040;-77
2023/07/19 13:19:10;;;;;;;13.02;3.95;;;;;;;;;;10565019;28;20568;-76
2023/07/19 13:24:14;;;;;;;5.07;3.22;;;;;;;;;;10560704;28;20043;-76
2023/07/19 13:29:17;;;;;;;7.60;2.78;;;;;;;;;;10559207;28;20122;-76
2023/07/19 13:34:22;;;;;;;6.32;3.33;;;;;;;;;;10566706;28;20097;-74
2023/07/19 13:39:27;;;;;;;5.55;3.03;;;;;;;;;;10567360;28;20034;-74
2023/07/19 13:44:30;;;;;;;9.13;3.35;;;;;;;;;;10560805;28;21968;-75
2023/07/19 13:49:32;;;;;;;5.18;2.90;;;;;;;;;;10565470;27;20040;-75
2023/07/19 13:54:37;;;;;;;8.63;2.88;;;;;;;;;;10563494;27;20058;-75
2023/07/19 13:59:39;;;;;;;5.20;2.90;;;;;;;;;;10557550;28;20054;-74
2023/07/19 14:04:42;;;;;;;5.45;3.47;;;;;;;;;;10557495;28;20050;-75
2023/07/19 14:09:46;;;;;;;4.63;3.03;;;;;;;;;;10557951;28;20477;-74
2023/07/19 14:14:49;;;;;;;10.90;3.47;;;;;;;;;;10560196;28;20039;-75
2023/07/19 14:19:52;;;;;;;5.95;3.03;;;;;;;;;;10562901;28;20040;-75
2023/07/19 14:24:56;;;;;;;6.68;3.17;;;;;;;;;;10561278;28;20126;-75
2023/07/19 14:29:58;;;;;;;6.78;2.80;;;;;;;;;;10556935;28;20107;-75
2023/07/19 14:35:01;;;;;;;5.75;2.90;;;;;;;;;;10558761;28;20071;-75
2023/07/19 14:40:06;;;;;;;5.75;3.08;;;;;;;;;;10562691;27;20103;-75
2023/07/19 14:45:09;;;;;;;7.53;3.33;;;;;;;;;;10558978;27;20055;-75
2023/07/19 14:50:11;;;;;;;9.05;2.90;;;;;;;;;;10554677;28;20502;-75
2023/07/19 14:55:15;;;;;;;4.70;2.80;;;;;;;;;;10551494;27;20035;-75
2023/07/19 15:00:19;;;;;;;4.35;2.47;;;;;;;;;;10556213;27;20146;-75
2023/07/19 15:05:41;;;;;;;5.25;2.67;;;;;;;;;;10553374;28;20048;-75
2023/07/19 15:10:49;;;;;;;5.90;2.92;;;;;;;;;;10555731;27;20039;-76
2023/07/19 15:15:52;;;;;;;5.80;3.17;;;;;;;;;;10557895;27;20080;-74
2023/07/19 15:20:59;;;;;;;6.18;2.80;;;;;;;;;;10551172;27;20055;-75
2023/07/19 15:26:02;;;;;;;7.30;2.95;;;;;;;;;;10554962;28;20088;-75
2023/07/19 15:31:05;;;;;;;6.78;2.97;;;;;;;;;;10558898;28;20043;-76
2023/07/19 15:36:08;;;;;;;7.32;2.95;;;;;;;;;;10557959;27;20130;-76
2023/07/19 15:41:13;;;;;;;5.70;2.90;;;;;;;;;;10563352;27;20035;-75
2023/07/19 15:46:15;;;;;;;7.50;3.00;;;;;;;;;;10555318;28;20123;-75
2023/07/19 15:51:18;;;;;;;5.32;2.78;;;;;;;;;;10561682;28;20048;-75
2023/07/19 15:56:23;;;;;;;5.10;2.60;;;;;;;;;;10558631;28;20553;-77
2023/07/19 16:01:26;;;;;;;6.25;2.70;;;;;;;;;;10559136;27;20046;-77
2023/07/19 16:06:29;;;;;;;6.03;3.22;;;;;;;;;;10556066;28;20055;-77
2023/07/19 16:11:33;;;;;;;7.32;2.80;;;;;;;;;;10557734;28;20036;-75
2023/07/19 16:16:36;;;;;;;5.20;2.80;;;;;;;;;;10554350;28;20055;-76
2023/07/19 16:21:39;;;;;;;9.18;3.25;;;;;;;;;;10554148;28;20036;-75
2023/07/19 16:26:42;;;;;;;7.43;2.92;;;;;;;;;;10558416;28;20126;-75
2023/07/19 16:31:45;;;;;;;6.00;2.67;;;;;;;;;;10555421;28;20024;-76
2023/07/19 16:36:48;;;;;;;6.15;2.85;;;;;;;;;;10553570;28;20050;-75
2023/07/19 16:41:52;;;;;;;6.57;3.13;;;;;;;;;;10564968;28;20036;-76
2023/07/19 16:46:55;;;;;;;6.95;2.90;;;;;;;;;;10566775;28;20126;-76
2023/07/19 16:51:58;;;;;;;5.22;3.00;;;;;;;;;;10571381;28;20104;-77
2023/07/19 16:57:02;;;;;;;8.10;3.10;;;;;;;;;;10565796;27;20035;-75
2023/07/19 17:02:04;;;;;;;9.30;3.17;;;;;;;;;;10569894;27;20107;-74
2023/07/19 17:07:07;;;;;;;8.98;3.35;;;;;;;;;;10565156;27;20043;-75
2023/07/19 17:12:11;;;;;;;9.32;4.43;;;;;;;;;;10566737;28;20182;-75
2023/07/19 17:17:14;;;;;;;10.95;5.50;;;;;;;;;;10568193;28;20047;-75
2023/07/19 17:22:17;;;;;;;7.03;3.78;;;;;;;;;;10572568;28;20052;-75
2023/07/19 17:27:21;;;;;;;8.88;3.10;;;;;;;;;;10563953;28;20135;-75
2023/07/19 17:32:24;;;;;;;10.48;3.63;;;;;;;;;;10567575;27;20146;-75
2023/07/19 17:37:27;;;;;;;7.88;4.00;;;;;;;;;;10561999;27;20044;-75
2023/07/19 17:42:31;;;;;;;9.60;3.40;;;;;;;;;;10570073;27;20131;-75
2023/07/19 17:47:33;;;;;;;6.90;3.40;;;;;;;;;;10564113;28;20081;-74
2023/07/19 17:52:36;;;;;;;9.93;3.75;;;;;;;;;;10562914;28;20063;-74
2023/07/19 17:57:40;;;;;;;8.20;3.30;;;;;;;;;;10565640;27;20096;-75
2023/07/19 18:02:43;;;;;;;8.63;4.03;;;;;;;;;;10560257;28;20036;-74
2023/07/19 18:07:46;;;;;;;6.72;3.70;;;;;;;;;;10556501;28;20146;-75
2023/07/19 18:12:50;;;;;;;8.80;3.75;;;;;;;;;;10557799;28;20051;-75
2023/07/19 18:17:52;;;;;;;7.35;3.42;;;;;;;;;;10563165;27;20039;-75
2023/07/19 18:22:55;;;;;;;5.90;2.92;;;;;;;;;;10561773;27;20071;-74
2023/07/19 18:27:59;;;;;;;12.68;5.80;;;;;;;;;;10545661;27;20036;-74
2023/07/19 18:33:02;;;;;;;7.22;3.28;;;;;;;;;;10560647;27;20035;-75
2023/07/19 18:38:04;;;;;;;9.48;3.50;;;;;;;;;;10544095;28;20059;-75
2023/07/19 18:43:07;;;;;;;;;;;;;;;;;;10556750;28;20042;-74
2023/07/19 18:48:11;;;;;;;8.57;3.30;;;;;;;;;;10562656;27;19930;-75
2023/07/19 18:53:14;;;;;;;9.45;3.25;;;;;;;;;;10558111;27;20043;-77
2023/07/19 18:58:18;;;;;;;13.88;6.43;;;;;;;;;;10554801;28;20063;-76
2023/07/19 19:03:22;;;;;;;7.82;3.42;;;;;;;;;;10551413;27;20047;-76
2023/07/19 19:08:25;;;;;;;8.60;2.95;;;;;;;;;;10557967;28;20170;-75
2023/07/19 19:13:28;;;;;;;11.75;4.35;;;;;;;;;;10565303;28;20055;-76
2023/07/19 19:18:32;;;;;;;8.82;3.45;;;;;;;;;;10564195;28;20126;-75
2023/07/19 19:23:35;;;;;;;6.40;3.03;;;;;;;;;;10560365;27;20188;-75
2023/07/19 19:28:38;;;;;;;8.38;3.05;;;;;;;;;;10561193;27;20138;-75
2023/07/19 19:33:40;;;;;;;;;;;;;;;;;;10559066;28;20042;-75
2023/07/19 19:38:44;;;;;;;11.15;3.38;;;;;;;;;;10557237;28;19919;-76
2023/07/19 19:43:47;;;;;;;5.32;2.70;;;;;;;;;;10565178;28;20126;-75
2023/07/19 19:48:49;;;;;;;9.50;5.32;;;;;;;;;;10553978;27;20464;-81
2023/07/19 19:53:53;;;;;;;5.43;2.80;;;;;;;;;;10561433;27;20119;-82
2023/07/19 19:58:56;;;;;;;7.28;2.95;;;;;;;;;;10541496;27;20039;-81
2023/07/19 20:04:00;;;;;;;13.43;5.65;;;;;;;;;;10575482;27;20048;-82
2023/07/19 20:09:08;;;;;;;13.45;5.18;;;;;;;;;;10561885;27;20067;-81
2023/07/19 20:14:14;;;;;;;6.55;3.60;;;;;;;;;;10562105;27;20419;-81
2023/07/19 20:19:18;;;;;;;10.10;4.20;;;;;;;;;;10567898;27;20544;-82
2023/07/19 20:24:25;;;;;;;7.95;2.88;;;;;;;;;;10560418;28;20511;-77
2023/07/19 20:29:40;;;;;;;13.00;6.03;;;;;;;;;;10555942;28;20071;-77
2023/07/19 20:34:46;;;;;;;4.50;2.50;;;;;;;;;;10544157;28;20077;-77
2023/07/19 20:40:03;;;;;;;8.80;3.80;;;;;;;;;;10552880;28;20046;-78
2023/07/19 20:45:06;;;;;;;12.88;4.22;;;;;;;;;;10556454;28;20777;-76
2023/07/19 20:50:16;;;;;;;22.80;8.20;;;;;;;;;;10559569;28;20044;-77
2023/07/19 20:55:18;;;;;;;;;;;;;;;;;;10562996;28;20047;-77
2023/07/19 21:00:23;;;;;;;6.07;2.30;;;;;;;;;;10563473;28;19928;-77
2023/07/19 21:05:26;;;;;;;6.28;2.65;;;;;;;;;;10561257;28;20079;-76
2023/07/19 21:10:29;;;;;;;9.65;3.55;;;;;;;;;;10565957;28;20040;-77
2023/07/19 21:15:33;;;;;;;7.13;2.72;;;;;;;;;;10561029;28;20053;-78
2023/07/19 21:20:35;;;;;;;10.13;2.88;;;;;;;;;;10561178;27;20135;-79
2023/07/19 21:25:38;;;;;;;7.75;2.83;;;;;;;;;;10555345;27;20500;-79
2023/07/19 21:30:42;;;;;;;7.13;3.10;;;;;;;;;;10570687;27;20075;-77
2023/07/19 21:35:45;;;;;;;8.98;4.22;;;;;;;;;;10540883;27;20126;-78
2023/07/19 21:40:47;;;;;;;7.45;3.80;;;;;;;;;;10570483;27;20045;-77
2023/07/19 21:45:51;;;;;;;12.48;4.47;;;;;;;;;;10575785;27;20128;-77
2023/07/19 21:50:55;;;;;;;10.15;3.00;;;;;;;;;;10574627;27;20553;-77
2023/07/19 21:55:58;;;;;;;8.10;2.40;;;;;;;;;;10579370;27;20044;-77
2023/07/19 22:01:00;;;;;;;;;;;;;;;;;;10558923;27;20056;-76
2023/07/19 22:06:05;;;;;;;8.68;2.85;;;;;;;;;;10575830;27;20018;-77
2023/07/19 22:11:08;;;;;;;5.03;2.58;;;;;;;;;;10574594;27;20122;-76
2023/07/19 22:16:11;;;;;;;5.15;2.78;;;;;;;;;;10563738;28;20118;-77
2023/07/19 22:21:15;;;;;;;4.15;2.10;;;;;;;;;;10563280;27;20123;-77
2023/07/19 22:26:24;;;;;;;6.25;2.50;;;;;;;;;;10569703;27;20082;-77
2023/07/19 22:31:27;;;;;;;5.07;2.53;;;;;;;;;;10558156;27;20201;-77
2023/07/19 22:36:31;;;;;;;9.65;2.42;;;;;;;;;;10560220;27;20039;-78
2023/07/19 22:41:34;;;;;;;6.40;2.65;;;;;;;;;;10568820;27;20078;-78
2023/07/19 22:46:37;;;;;;;5.47;2.40;;;;;;;;;;10562143;27;20746;-76
2023/07/19 22:51:41;;;;;;;7.22;2.25;;;;;;;;;;10558656;28;20039;-76
2023/07/19 22:56:44;;;;;;;8.35;2.58;;;;;;;;;;10566304;28;20053;-76
2023/07/19 23:01:46;;;;;;;5.05;2.17;;;;;;;;;;10557277;28;20040;-76
2023/07/19 23:06:51;;;;;;;3.92;2.30;;;;;;;;;;10557290;28;20044;-78
2023/07/19 23:11:54;;;;;;;4.05;2.30;;;;;;;;;;10560080;27;20046;-77
2023/07/19 23:16:56;;;;;;;7.43;2.08;;;;;;;;;;10562500;28;20472;-78
2023/07/19 23:21:59;;;;;;;;;;;;;;;;;;10567796;28;20036;-78
2023/07/19 23:27:03;;;;;;;4.97;2.30;;;;;;;;;;10561041;28;19931;-78
2023/07/19 23:32:06;;;;;;;7.53;2.35;;;;;;;;;;10561006;27;20039;-76
2023/07/19 23:37:09;;;;;;;7.10;2.33;;;;;;;;;;10565321;27;20050;-74
2023/07/19 23:42:13;;;;;;;5.32;2.47;;;;;;;;;;10559992;27;20050;-75
2023/07/19 23:47:16;;;;;;;5.15;2.10;;;;;;;;;;10550008;27;20043;-77
2023/07/19 23:52:18;;;;;;;6.57;2.95;;;;;;;;;;10561170;27;20507;-78
2023/07/19 23:57:23;;;;;;;4.13;2.10;;;;;;;;;;10556560;28;20074;-80
